Time;durP1;ratioP1;P1;durP2;ratioP2;P2;SDS_P1;SDS_P2;PMS_P1;PMS_P2;Temp;Humidity;BMP_temperature;BMP_pressure;BME280_temperature;BME280_humidity;BME280_pressure;Samples;Min_cycle;Max_cycle;Signal;HPM_P1;HPM_P2
2021/07/14 00:00:52;;;;;;;;;0.00;0.00;;;;;26.01;100.00;100826.63;5040377;28;45269;-63
2021/07/14 00:03:17;;;;;;;;;0.00;0.00;;;;;25.97;100.00;100828.09;5042526;28;45523;-64
2021/07/14 00:05:43;;;;;;;;;0.00;0.00;;;;;25.96;100.00;100826.44;5044221;28;45228;-63
2021/07/14 00:08:11;;;;;;;;;0.00;0.00;;;;;26.05;100.00;100827.81;5044174;28;45257;-64
2021/07/14 00:10:37;;;;;;;;;0.00;0.00;;;;;26.04;100.00;100828.84;5044087;28;45422;-64
2021/07/14 00:23:38;;;;;;;;;0.00;0.00;;;;;25.99;100.00;100826.00;5043906;28;45287;-63
2021/07/14 00:26:04;;;;;;;;;0.00;0.00;;;;;25.93;100.00;100821.50;5044162;28;45348;-63
2021/07/14 00:28:30;;;;;;;;;0.00;0.00;;;;;25.95;100.00;100824.78;5043582;28;45420;-63
2021/07/14 00:30:57;;;;;;;;;0.00;0.00;;;;;25.96;100.00;100826.44;5043371;28;45620;-63
2021/07/14 00:33:26;;;;;;;;;0.00;0.00;;;;;25.98;100.00;100822.50;5043771;28;45338;-62
2021/07/14 00:35:51;;;;;;;;;0.00;0.00;;;;;26.05;100.00;100832.38;5043970;28;45594;-63
2021/07/14 00:38:16;;;;;;;;;0.00;0.00;;;;;26.09;100.00;100842.50;5038160;28;46529;-64
2021/07/14 00:40:42;;;;;;;;;0.00;0.00;;;;;26.10;100.00;100832.53;5043757;28;45289;-63
2021/07/14 00:43:07;;;;;;;;;0.00;0.00;;;;;26.15;100.00;100832.69;5025952;28;45409;-64
2021/07/14 00:45:33;;;;;;;;;0.00;0.00;;;;;26.10;100.00;100830.66;5043852;28;45489;-63
2021/07/14 00:48:01;;;;;;;;;0.00;0.00;;;;;25.84;100.00;100830.84;5025433;28;47401;-64
2021/07/14 00:50:26;;;;;;;;;0.00;0.00;;;;;26.04;100.00;100828.03;5043358;28;45436;-63
2021/07/14 00:52:52;;;;;;;;;0.00;0.00;;;;;25.95;100.00;100822.09;5025455;28;45199;-63
2021/07/14 00:55:17;;;;;;;;;0.00;0.00;;;;;25.97;100.00;100830.78;5043996;28;45597;-63
2021/07/14 00:57:43;;;;;;;;;0.00;0.00;;;;;25.95;100.00;100828.31;5043441;28;45788;-63
2021/07/14 01:00:10;;;;;;;;;0.00;0.00;;;;;26.02;100.00;100833.63;5025150;28;45378;-63
2021/07/14 01:02:36;;;;;;;;;0.00;0.00;;;;;26.02;100.00;100836.31;5043357;28;45341;-63
2021/07/14 01:05:31;;;;;;;;;0.00;0.00;;;;;26.07;100.00;100841.03;5043823;28;45477;-63
2021/07/14 01:08:10;;;;;;;;;0.00;0.00;;;;;26.05;100.00;100837.75;5025580;28;46318;-64
2021/07/14 01:10:43;;;;;;;;;0.00;0.00;;;;;26.04;100.00;100841.50;5043074;28;45454;-63
2021/07/14 01:13:21;;;;;;;;;0.00;0.00;;;;;25.94;100.00;100837.44;5043377;28;45339;-63
2021/07/14 01:15:53;;;;;;;;;0.00;0.00;;;;;25.96;100.00;100847.94;5042580;28;45486;-63
2021/07/14 01:18:32;;;;;;;;;0.00;0.00;;;;;25.97;100.00;100838.84;5043033;28;45541;-63
2021/07/14 01:21:15;;;;;;;;;0.00;0.00;;;;;25.94;100.00;100831.19;5043069;28;45353;-63
2021/07/14 01:23:56;;;;;;;;;0.00;0.00;;;;;25.93;100.00;100840.31;5043109;28;45312;-63
2021/07/14 01:27:00;;;;;;;;;0.00;0.00;;;;;25.92;100.00;100847.59;5043349;28;45478;-62
2021/07/14 01:29:28;;;;;;;;;0.00;0.00;;;;;25.91;100.00;100850.47;5042223;28;45620;-63
2021/07/14 01:31:55;;;;;;;;;0.00;0.00;;;;;25.89;100.00;100850.69;5042958;28;45466;-63
2021/07/14 01:34:22;;;;;;;;;0.00;0.00;;;;;25.85;100.00;100851.31;5043074;28;45237;-63
2021/07/14 01:36:50;;;;;;;;;0.00;0.00;;;;;25.79;100.00;100844.97;5043432;28;45339;-64
2021/07/14 01:39:16;;;;;;;;;0.00;0.00;;;;;25.73;100.00;100848.50;5029308;28;45289;-64
2021/07/14 01:41:45;;;;;;;;;0.00;0.00;;;;;25.71;100.00;100846.03;5042849;28;45362;-63
2021/07/14 01:44:12;;;;;;;;;0.00;0.00;;;;;25.63;100.00;100835.53;5042598;28;45224;-63
2021/07/14 01:46:40;;;;;;;;;0.00;0.00;;;;;25.69;100.00;100841.91;5042758;28;45463;-64
2021/07/14 01:49:12;;;;;;;;;0.00;0.00;;;;;25.69;100.00;100831.97;5042508;28;45561;-63
2021/07/14 01:51:47;;;;;;;;;0.00;0.00;;;;;25.65;100.00;100841.50;5042676;28;45323;-62
2021/07/14 01:54:14;;;;;;;;;0.00;0.00;;;;;25.61;100.00;100828.72;5042685;28;45483;-63
2021/07/14 01:56:41;;;;;;;;;0.00;0.00;;;;;25.58;100.00;100836.19;5042978;28;45308;-63
2021/07/14 01:59:08;;;;;;;;;0.00;0.00;;;;;25.61;100.00;100831.41;5041763;28;46714;-62
2021/07/14 02:01:41;;;;;;;;;0.00;0.00;;;;;25.59;100.00;100826.22;5042397;28;45210;-63
2021/07/14 02:06:56;;;;;;;;;0.00;0.00;;;;;25.62;100.00;100825.00;5042649;28;45223;-62
2021/07/14 02:09:21;;;;;;;;;0.00;0.00;;;;;25.56;100.00;100818.63;5042486;28;46708;-63
2021/07/14 02:11:51;;;;;;;;;0.00;0.00;;;;;25.57;100.00;100823.78;5042516;28;45257;-63
2021/07/14 02:14:20;;;;;;;;;0.00;0.00;;;;;25.50;100.00;100820.28;5042163;28;45324;-63
2021/07/14 02:16:47;;;;;;;;;0.00;0.00;;;;;25.55;100.00;100817.78;5042611;28;45240;-63
2021/07/14 02:19:16;;;;;;;;;0.00;0.00;;;;;25.58;100.00;100816.53;5042251;28;46300;-63
2021/07/14 02:21:42;;;;;;;;;0.00;0.00;;;;;25.52;100.00;100814.72;5042185;28;45343;-63
2021/07/14 02:24:11;;;;;;;;;0.00;0.00;;;;;25.50;100.00;100814.09;5042316;28;45256;-63
2021/07/14 02:26:38;;;;;;;;;0.00;0.00;;;;;25.50;100.00;100820.28;5040923;28;45571;-63
2021/07/14 02:29:04;;;;;;;;;0.00;0.00;;;;;25.47;100.00;100819.91;5042055;28;46227;-63
2021/07/14 02:31:30;;;;;;;;;0.00;0.00;;;;;25.42;100.00;100827.78;5041724;28;45325;-63
2021/07/14 02:33:55;;;;;;;;;0.00;0.00;;;;;25.35;100.00;100825.13;5042190;28;45311;-63
2021/07/14 02:36:22;;;;;;;;;0.00;0.00;;;;;25.35;100.00;100825.94;5042039;28;45482;-64
2021/07/14 02:38:53;;;;;;;;;0.00;0.00;;;;;25.31;100.00;100822.06;5031724;28;46407;-63
2021/07/14 02:41:26;;;;;;;;;0.00;0.00;;;;;25.26;100.00;100827.25;5039354;28;45417;-63
2021/07/14 02:43:59;;;;;;;;;0.00;0.00;;;;;25.27;100.00;100828.91;5041606;28;45219;-64
2021/07/14 02:46:27;;;;;;;;;0.00;0.00;;;;;25.27;100.00;100823.53;5041812;28;45282;-63
2021/07/14 02:49:00;;;;;;;;;0.00;0.00;;;;;25.28;100.00;100832.41;5023520;28;46163;-63
2021/07/14 02:51:29;;;;;;;;;0.00;0.00;;;;;25.20;100.00;100827.28;5042073;28;45270;-63
2021/07/14 02:53:59;;;;;;;;;0.00;0.00;;;;;25.28;100.00;100832.41;5041869;28;45358;-63
2021/07/14 02:56:28;;;;;;;;;0.00;0.00;;;;;25.22;100.00;100838.63;5042064;28;45157;-63
2021/07/14 02:58:57;;;;;;;;;0.00;0.00;;;;;25.23;100.00;100838.44;5041413;28;46644;-63
2021/07/14 03:01:24;;;;;;;;;0.00;0.00;;;;;25.20;100.00;100836.16;5041724;28;45334;-63
2021/07/14 03:03:50;;;;;;;;;0.00;0.00;;;;;25.24;100.00;100839.25;5023651;28;45303;-63
2021/07/14 03:06:17;;;;;;;;;0.00;0.00;;;;;25.19;100.00;100842.56;5041931;28;45428;-62
2021/07/14 03:08:47;;;;;;;;;0.00;0.00;;;;;25.22;100.00;100836.78;5041427;28;45344;-62
2021/07/14 03:11:14;;;;;;;;;0.00;0.00;;;;;25.23;100.00;100838.44;5041603;28;45376;-61
2021/07/14 03:13:43;;;;;;;;;0.00;0.00;;;;;25.26;100.00;100832.63;5041223;28;45394;-64
2021/07/14 03:16:08;;;;;;;;;0.00;0.00;;;;;25.21;100.00;100832.44;5041537;28;45338;-63
2021/07/14 03:18:36;;;;;;;;;0.00;0.00;;;;;25.27;100.00;100831.59;5041127;28;45361;-63
2021/07/14 03:21:03;;;;;;;;;0.00;0.00;;;;;25.23;100.00;100838.44;5041284;28;45526;-63
2021/07/14 03:23:30;;;;;;;;;0.00;0.00;;;;;25.25;100.00;100839.06;5048770;28;45241;-63
2021/07/14 03:25:59;;;;;;;;;0.00;0.00;;;;;25.23;100.00;100843.81;5041571;28;45477;-64
2021/07/14 03:28:30;;;;;;;;;0.00;0.00;;;;;25.26;100.00;100847.94;5022979;28;47582;-63
2021/07/14 03:30:57;;;;;;;;;0.00;0.00;;;;;25.27;100.00;100852.25;5040919;28;45339;-63
2021/07/14 03:33:22;;;;;;;;;0.00;0.00;;;;;25.25;100.00;100849.81;5041262;28;45498;-63
2021/07/14 03:35:48;;;;;;;;;0.00;0.00;;;;;25.27;100.00;100849.56;5041334;28;45142;-63
2021/07/14 03:38:15;;;;;;;;;0.00;0.00;;;;;25.29;100.00;100852.88;5034859;28;45577;-62
2021/07/14 03:40:42;;;;;;;;;0.00;0.00;;;;;25.26;100.00;100862.19;5034983;28;45644;-63
2021/07/14 03:43:09;;;;;;;;;0.00;0.00;;;;;25.31;100.00;100865.09;5041006;28;45284;-63
2021/07/14 03:45:36;;;;;;;;;0.00;0.00;;;;;25.31;100.00;100866.91;5040955;28;45301;-63
2021/07/14 03:48:02;;;;;;;;;0.00;0.00;;;;;25.24;100.00;100871.50;5040758;28;46400;-63
2021/07/14 03:50:28;;;;;;;;;0.00;0.00;;;;;25.16;100.00;100862.63;5040863;28;45356;-64
2021/07/14 03:52:54;;;;;;;;;0.00;0.00;;;;;25.24;100.00;100868.81;5040924;28;45349;-63
2021/07/14 03:55:20;;;;;;;;;0.00;0.00;;;;;25.24;100.00;100872.31;5041101;28;45549;-63
2021/07/14 03:57:45;;;;;;;;;0.00;0.00;;;;;25.23;100.00;100875.25;5040819;28;45722;-63
2021/07/14 04:00:11;;;;;;;;;0.00;0.00;;;;;25.29;100.00;100877.06;5040772;28;45248;-63
2021/07/14 04:02:39;;;;;;;;;0.00;0.00;;;;;25.22;100.00;100878.97;5040041;28;45316;-63
2021/07/14 04:05:06;;;;;;;;;0.00;0.00;;;;;25.25;100.00;100882.06;5041369;28;45356;-63
2021/07/14 04:07:34;;;;;;;;;0.00;0.00;;;;;25.25;100.00;100881.22;5040794;28;45288;-63
2021/07/14 04:10:01;;;;;;;;;0.00;0.00;;;;;25.25;100.00;100884.75;5040815;28;45332;-63
2021/07/14 04:12:27;;;;;;;;;0.00;0.00;;;;;25.22;100.00;100873.59;5040940;28;45393;-62
2021/07/14 04:14:52;;;;;;;;;0.00;0.00;;;;;25.27;100.00;100882.66;5040752;28;45374;-62
2021/07/14 04:17:18;;;;;;;;;0.00;0.00;;;;;25.29;100.00;100879.75;5040603;28;46108;-62
2021/07/14 04:19:43;;;;;;;;;0.00;0.00;;;;;25.30;100.00;100868.78;5040661;28;45271;-62
2021/07/14 04:22:10;;;;;;;;;0.00;0.00;;;;;25.34;100.00;100878.09;5041017;28;45490;-62
2021/07/14 04:24:36;;;;;;;;;0.00;0.00;;;;;25.34;100.00;100880.78;5040849;28;45182;-63
2021/07/14 04:27:01;;;;;;;;;0.00;0.00;;;;;25.36;100.00;100878.69;5040575;28;45375;-63
2021/07/14 04:29:27;;;;;;;;;0.00;0.00;;;;;25.40;100.00;100879.09;5039702;28;45240;-63
2021/07/14 04:31:52;;;;;;;;;0.00;0.00;;;;;25.43;100.00;100880.53;5040738;28;45248;-63
2021/07/14 04:34:17;;;;;;;;;0.00;0.00;;;;;25.43;100.00;100877.84;5040949;28;45375;-63
2021/07/14 04:36:43;;;;;;;;;0.00;0.00;;;;;25.40;100.00;100884.47;5040512;28;46483;-63
2021/07/14 04:39:09;;;;;;;;;0.00;0.00;;;;;25.39;100.00;100880.13;5026870;28;45362;-63
2021/07/14 04:41:35;;;;;;;;;0.00;0.00;;;;;25.38;100.00;100876.63;5040973;28;45329;-63
2021/07/14 04:44:03;;;;;;;;;0.00;0.00;;;;;25.41;100.00;100883.44;5040495;28;45264;-62
2021/07/14 04:46:30;;;;;;;;;0.00;0.00;;;;;25.37;100.00;100888.41;5040466;28;46437;-63
2021/07/14 04:48:56;;;;;;;;;0.00;0.00;;;;;25.41;100.00;100883.44;5040281;28;45321;-62
2021/07/14 04:51:21;;;;;;;;;0.00;0.00;;;;;25.42;100.00;100887.78;5043693;28;45292;-62
2021/07/14 04:53:46;;;;;;;;;0.00;0.00;;;;;25.44;100.00;100892.94;5044034;28;45446;-63
2021/07/14 04:56:13;;;;;;;;;0.00;0.00;;;;;25.44;100.00;100896.44;5043560;28;50953;-63
2021/07/14 04:58:39;;;;;;;;;0.00;0.00;;;;;25.41;100.00;100899.56;5043328;28;45408;-63
2021/07/14 05:01:04;;;;;;;;;0.00;0.00;;;;;25.47;100.00;100904.09;5043805;28;45331;-63
2021/07/14 05:03:30;;;;;;;;;0.00;0.00;;;;;25.51;100.00;100909.88;5043737;28;45449;-63
2021/07/14 05:05:55;;;;;;;;;0.00;0.00;;;;;25.48;100.00;100911.09;5043481;28;45993;-63
2021/07/14 05:08:21;;;;;;;;;0.00;0.00;;;;;25.41;100.00;100915.69;5043222;28;45291;-63
2021/07/14 05:10:48;;;;;;;;;0.00;0.00;;;;;25.35;100.00;100914.66;5043670;28;45327;-64
2021/07/14 05:13:15;;;;;;;;;0.00;0.00;;;;;25.41;100.00;100906.81;5043763;28;45563;-64
2021/07/14 05:15:43;;;;;;;;;0.00;0.00;;;;;25.42;100.00;100903.06;5043182;28;46189;-64
2021/07/14 05:18:09;;;;;;;;;0.00;0.00;;;;;25.47;100.00;100906.78;5043336;28;45311;-63
2021/07/14 05:20:34;;;;;;;;;0.00;0.00;;;;;25.49;100.00;100910.09;5043699;28;45415;-62
2021/07/14 05:23:00;;;;;;;;;0.00;0.00;;;;;25.48;100.00;100913.78;5043388;28;45304;-63
2021/07/14 05:25:25;;;;;;;;;0.00;0.00;;;;;25.53;100.00;100919.38;5043090;28;46172;-63
2021/07/14 05:27:50;;;;;;;;;0.00;0.00;;;;;25.56;100.00;100912.75;5025013;28;46513;-63
2021/07/14 05:30:17;;;;;;;;;0.00;0.00;;;;;25.66;100.00;100918.50;5042907;28;45248;-63
2021/07/14 05:32:43;;;;;;;;;0.00;0.00;;;;;25.67;100.00;100924.69;5025300;28;45375;-63
2021/07/14 05:35:09;;;;;;;;;0.00;0.00;;;;;25.67;100.00;100913.94;5043262;28;45398;-63
2021/07/14 05:37:34;;;;;;;;;0.00;0.00;;;;;25.67;100.00;100916.63;5042312;28;45282;-63
2021/07/14 05:39:59;;;;;;;;;0.00;0.00;;;;;25.64;100.00;100914.34;5023247;28;45461;-63
2021/07/14 05:42:25;;;;;;;;;0.00;0.00;;;;;25.72;100.00;100922.16;5035084;28;45535;-63
2021/07/14 05:44:50;;;;;;;;;0.00;0.00;;;;;25.75;100.00;100929.81;5042594;28;45325;-63
2021/07/14 05:47:15;;;;;;;;;0.00;0.00;;;;;25.73;100.00;100911.19;5042772;28;45273;-63
2021/07/14 05:49:43;;;;;;;;;0.00;0.00;;;;;25.80;100.00;100924.63;5042647;28;45399;-63
2021/07/14 05:52:08;;;;;;;;;0.00;0.00;;;;;25.81;100.00;100918.22;5043192;28;45450;-63
2021/07/14 05:54:34;;;;;;;;;0.00;0.00;;;;;25.79;100.00;100931.06;5024771;28;46912;-63
2021/07/14 05:57:00;;;;;;;;;0.00;0.00;;;;;25.82;100.00;100919.84;5042741;28;45410;-63
2021/07/14 05:59:25;;;;;;;;;0.00;0.00;;;;;25.79;100.00;100914.91;5042199;28;45236;-63
2021/07/14 06:01:50;;;;;;;;;0.00;0.00;;;;;25.81;100.00;100928.97;5042626;28;45344;-63
2021/07/14 06:04:15;;;;;;;;;0.00;0.00;;;;;25.74;100.00;100925.47;5042264;28;46700;-64
2021/07/14 06:06:43;;;;;;;;;0.00;0.00;;;;;25.73;100.00;100926.53;5042154;28;48157;-63
2021/07/14 06:09:09;;;;;;;;;0.00;0.00;;;;;25.79;100.00;100931.88;5042365;28;45299;-64
2021/07/14 06:11:34;;;;;;;;;0.00;0.00;;;;;25.69;100.00;100928.81;5024944;28;45268;-64
2021/07/14 06:13:59;;;;;;;;;0.00;0.00;;;;;25.74;100.00;100928.16;5041790;28;46040;-64
2021/07/14 06:16:25;;;;;;;;;0.00;0.00;;;;;25.79;100.00;100929.19;5042167;28;45150;-64
2021/07/14 06:18:50;;;;;;;;;0.00;0.00;;;;;25.82;100.00;100935.16;5041830;28;45240;-63
2021/07/14 06:21:15;;;;;;;;;0.00;0.00;;;;;25.84;100.00;100935.78;5042406;28;45166;-64
2021/07/14 06:23:41;;;;;;;;;0.00;0.00;;;;;25.79;100.00;100931.88;5041567;28;46553;-64
2021/07/14 06:26:06;;;;;;;;;0.00;0.00;;;;;25.76;100.00;100939.53;5042331;28;45328;-63
2021/07/14 06:28:32;;;;;;;;;0.00;0.00;;;;;25.78;100.00;100932.06;5041651;28;45192;-63
2021/07/14 06:30:57;;;;;;;;;0.00;0.00;;;;;25.70;100.00;100935.84;5041976;28;45336;-63
2021/07/14 06:33:23;;;;;;;;;0.00;0.00;;;;;25.68;100.00;100939.78;5041729;28;45484;-64
2021/07/14 06:35:50;;;;;;;;;0.00;0.00;;;;;25.75;100.00;100937.91;5041961;28;45372;-64
2021/07/14 06:38:16;;;;;;;;;0.00;0.00;;;;;25.67;100.00;100943.53;5035633;28;45347;-63
2021/07/14 06:40:41;;;;;;;;;0.00;0.00;;;;;25.70;100.00;100949.31;5039693;28;45332;-63
2021/07/14 06:43:13;;;;;;;;;0.00;0.00;;;;;25.81;100.00;100953.19;5041856;28;46389;-63
2021/07/14 06:45:39;;;;;;;;;0.00;0.00;;;;;25.85;100.00;100957.06;5023539;28;45406;-64
2021/07/14 06:48:04;;;;;;;;;0.00;0.00;;;;;25.93;100.00;100958.72;5042089;28;45335;-64
2021/07/14 06:50:30;;;;;;;;;0.00;0.00;;;;;25.96;100.00;100963.66;5042031;28;45272;-64
2021/07/14 06:52:56;;;;;;;;;0.00;0.00;;;;;26.01;100.00;100958.47;5042032;28;46445;-64
2021/07/14 06:55:21;;;;;;;;;0.00;0.00;;;;;26.09;100.00;100950.16;5041970;28;45349;-62
2021/07/14 06:57:46;;;;;;;;;0.00;0.00;;;;;26.13;100.00;100953.22;5041933;28;45319;-63
2021/07/14 07:00:14;;;;;;;;;0.00;0.00;;;;;26.08;100.00;100947.69;5041615;28;45304;-64
2021/07/14 07:02:40;;;;;;;;;0.00;0.00;;;;;26.10;100.00;100940.22;5041557;28;46704;-63
2021/07/14 07:05:07;;;;;;;;;0.00;0.00;;;;;26.15;100.00;100943.06;5041776;28;45263;-63
2021/07/14 07:07:33;;;;;;;;;0.00;0.00;;;;;26.24;100.00;100939.09;5041600;28;45317;-63
2021/07/14 07:09:58;;;;;;;;;0.00;0.00;;;;;26.29;100.00;100941.13;5042180;28;45357;-63
2021/07/14 07:12:24;;;;;;;;;0.00;0.00;;;;;26.45;100.00;100947.84;5040988;28;45521;-63
2021/07/14 07:14:49;;;;;;;;;0.00;0.00;;;;;26.56;100.00;100949.84;5023305;28;45450;-63
2021/07/14 07:17:15;;;;;;;;;0.00;0.00;;;;;26.76;100.00;100950.50;5041752;28;45359;-63
2021/07/14 07:19:40;;;;;;;;;0.00;0.00;;;;;26.79;100.00;100960.00;5041527;28;45449;-63
2021/07/14 07:22:06;;;;;;;;;0.00;0.00;;;;;26.80;100.00;100957.09;5041237;28;45432;-62
2021/07/14 07:24:32;;;;;;;;;0.00;0.00;;;;;26.81;100.00;100955.22;5023631;28;45397;-64
2021/07/14 07:26:58;;;;;;;;;0.00;0.00;;;;;26.84;100.00;100943.19;5041456;28;45548;-63
2021/07/14 07:29:24;;;;;;;;;0.00;0.00;;;;;27.02;100.00;100948.59;5040738;28;45343;-63
2021/07/14 07:31:50;;;;;;;;;0.00;0.00;;;;;27.17;100.00;100957.16;5040650;28;46184;-63
2021/07/14 07:34:15;;;;;;;;;0.00;0.00;;;;;27.42;100.00;100956.28;5041441;28;45161;-64
2021/07/14 07:36:41;;;;;;;;;0.00;0.00;;;;;27.50;100.00;100957.84;5003246;28;45310;-63
2021/07/14 07:39:07;;;;;;;;;0.00;0.00;;;;;27.61;100.00;100955.22;5023053;28;45458;-63
2021/07/14 07:41:34;;;;;;;;;0.00;0.00;;;;;27.60;100.00;100960.81;5021061;28;45956;-63
2021/07/14 07:44:00;;;;;;;;;0.00;0.00;;;;;27.54;100.00;100951.78;5033836;28;45522;-63
2021/07/14 07:46:25;;;;;;;;;0.00;0.00;;;;;27.60;100.00;100956.28;5040784;28;45317;-64
2021/07/14 07:48:51;;;;;;;;;0.00;0.00;;;;;27.79;100.00;100953.53;5041382;28;45321;-64
2021/07/14 07:51:17;;;;;;;;;0.00;0.00;;;;;28.00;100.00;100955.75;5040765;28;45296;-64
2021/07/14 07:53:43;;;;;;;;;0.00;0.00;;;;;28.21;100.00;100954.41;5041241;28;45463;-64
2021/07/14 07:56:08;;;;;;;;;0.00;0.00;;;;;28.47;100.00;100963.16;5040884;28;45326;-64
2021/07/14 07:58:34;;;;;;;;;0.00;0.00;;;;;28.60;100.00;100962.16;5040765;28;45329;-63
2021/07/14 08:01:00;;;;;;;;;0.00;0.00;;;;;28.57;100.00;100966.13;5040430;28;46550;-63
2021/07/14 08:03:25;;;;;;;;;0.00;0.00;;;;;28.49;99.67;100973.75;5040367;28;45385;-64
2021/07/14 08:05:51;;;;;;;;;0.00;0.00;;;;;28.21;98.79;100972.50;5022589;28;45229;-64
2021/07/14 08:08:18;;;;;;;;;0.00;0.00;;;;;28.02;100.00;100979.84;5040485;28;45415;-64
2021/07/14 08:10:43;;;;;;;;;0.00;0.00;;;;;27.87;100.00;100965.94;5040190;28;45479;-64
2021/07/14 08:13:09;;;;;;;;;0.00;0.00;;;;;27.92;100.00;100972.28;5040594;28;45483;-63
2021/07/14 08:15:35;;;;;;;;;0.00;0.00;;;;;27.98;99.11;100974.06;5039896;28;45287;-64
2021/07/14 08:18:01;;;;;;;;;0.00;0.00;;;;;27.91;100.00;100973.34;5040613;28;45323;-63
2021/07/14 08:20:27;;;;;;;;;0.00;0.00;;;;;27.97;99.15;100974.28;5040176;28;46211;-63
2021/07/14 08:22:53;;;;;;;;;0.00;0.00;;;;;27.89;98.83;100982.72;5040386;28;45262;-63
2021/07/14 08:25:18;;;;;;;;;0.00;0.00;;;;;27.95;98.69;100984.50;5041990;28;45220;-63
2021/07/14 08:27:44;;;;;;;;;0.00;0.00;;;;;27.89;98.47;100988.94;5043959;28;45259;-63
2021/07/14 08:30:11;;;;;;;;;0.00;0.00;;;;;27.99;98.02;100982.97;5042996;28;46445;-63
2021/07/14 08:32:37;;;;;;;;;0.00;0.00;;;;;27.91;98.18;100989.53;5043436;28;45236;-62
2021/07/14 08:35:04;;;;;;;;;0.00;0.00;;;;;27.77;97.87;100991.53;5025399;28;45317;-64
2021/07/14 08:37:29;;;;;;;;;0.00;0.00;;;;;27.64;97.96;100988.19;5043539;28;45344;-63
2021/07/14 08:39:56;;;;;;;;;0.00;0.00;;;;;27.58;98.08;100998.00;5023714;28;45497;-63
2021/07/14 08:42:22;;;;;;;;;0.00;0.00;;;;;27.53;99.06;101000.56;5036619;28;45388;-63
2021/07/14 08:44:49;;;;;;;;;0.00;0.00;;;;;27.56;99.82;101000.94;5042738;28;45323;-64
2021/07/14 08:47:16;;;;;;;;;0.00;0.00;;;;;27.44;99.75;101004.59;5041444;28;45418;-63
2021/07/14 08:49:46;;;;;;;;;0.00;0.00;;;;;27.16;100.00;101005.91;5030631;28;46297;-65
2021/07/14 08:52:12;;;;;;;;;0.00;0.00;;;;;27.18;100.00;101001.09;5043126;28;45340;-64
2021/07/14 08:54:42;;;;;;;;;0.00;0.00;;;;;27.22;100.00;101005.03;5041824;28;45475;-64
2021/07/14 08:57:12;;;;;;;;;0.00;0.00;;;;;27.23;100.00;101006.69;5038700;28;45465;-66
2021/07/14 08:59:38;;;;;;;;;0.00;0.00;;;;;27.26;100.00;101014.34;5032392;28;47240;-66
2021/07/14 09:02:04;;;;;;;;;0.00;0.00;;;;;27.22;100.00;101007.75;5042739;28;45279;-66
2021/07/14 09:04:29;;;;;;;;;0.00;0.00;;;;;27.20;100.00;101007.09;5023111;28;45264;-66
2021/07/14 09:06:55;;;;;;;;;0.00;0.00;;;;;27.35;100.00;101001.38;5046373;28;45236;-66
2021/07/14 09:09:22;;;;;;;;;0.00;0.00;;;;;27.45;100.00;101012.50;5035118;28;46348;-67
2021/07/14 09:11:58;;;;;;;;;0.00;0.00;;;;;27.41;99.76;101006.72;5038825;28;45232;-66
2021/07/14 09:14:37;;;;;;;;;0.00;0.00;;;;;27.25;99.89;101009.16;5025078;28;45405;-66
2021/07/14 09:17:19;;;;;;;;;0.00;0.00;;;;;27.20;100.00;101016.00;5042894;28;45277;-64
2021/07/14 09:19:45;;;;;;;;;0.00;0.00;;;;;27.11;100.00;101009.25;5042596;28;45428;-66
2021/07/14 09:22:22;;;;;;;;;0.00;0.00;;;;;27.06;100.00;101002.88;5042747;28;45324;-66
2021/07/14 09:24:48;;;;;;;;;0.00;0.00;;;;;26.72;100.00;101002.38;5045146;28;45378;-67
2021/07/14 09:27:19;;;;;;;;;0.00;0.00;;;;;26.84;100.00;101003.28;5038701;28;45242;-66
2021/07/14 09:30:10;;;;;;;;;0.00;0.00;;;;;27.04;100.00;101002.28;5023875;28;48285;-66
2021/07/14 09:32:55;;;;;;;;;0.00;0.00;;;;;27.11;100.00;101011.97;5042671;28;45182;-69
2021/07/14 09:35:36;;;;;;;;;0.00;0.00;;;;;27.25;100.00;101009.97;5042255;28;45260;-68
2021/07/14 09:38:11;;;;;;;;;0.00;0.00;;;;;27.30;100.00;101012.84;5036938;28;45269;-65
2021/07/14 09:40:38;;;;;;;;;0.00;0.00;;;;;27.57;98.24;101007.16;5035160;28;45591;-64
2021/07/14 09:43:07;;;;;;;;;0.00;0.00;;;;;27.50;99.29;101012.63;5031226;28;46711;-65
2021/07/14 09:45:47;;;;;;;;;0.00;0.00;;;;;27.45;99.38;101019.72;5033324;28;45280;-64
2021/07/14 09:48:16;;;;;;;;;0.00;0.00;;;;;27.52;98.46;101017.81;5038264;28;45257;-65
2021/07/14 09:51:31;;;;;;;;;0.00;0.00;;;;;27.46;96.71;101024.09;5039053;28;46070;-66
2021/07/14 09:53:56;;;;;;;;;0.00;0.00;;;;;27.30;99.21;101017.41;5018077;28;45232;-66
2021/07/14 09:56:26;;;;;;;;;0.00;0.00;;;;;27.45;99.09;101028.66;5040359;28;45641;-65
2021/07/14 09:59:04;;;;;;;;;0.00;0.00;;;;;27.51;97.23;101024.22;5030063;28;45869;-64
2021/07/14 10:01:36;;;;;;;;;0.00;0.00;;;;;27.30;97.18;101014.69;5037108;28;45673;-65
2021/07/14 10:04:03;;;;;;;;;0.00;0.00;;;;;27.19;97.77;101019.78;5035670;28;45418;-63
2021/07/14 10:06:29;;;;;;;;;0.00;0.00;;;;;27.19;98.10;101022.47;5039780;28;45395;-66
2021/07/14 10:09:02;;;;;;;;;0.00;0.00;;;;;27.25;98.59;101019.94;5027556;28;45581;-65
2021/07/14 10:11:28;;;;;;;;;0.00;0.00;;;;;27.30;98.04;101028.19;5040811;28;45418;-67
2021/07/14 10:13:56;;;;;;;;;0.00;0.00;;;;;27.13;99.59;101022.53;5036723;28;45493;-68
2021/07/14 10:16:24;;;;;;;;;0.00;0.00;;;;;27.22;99.25;101026.63;5031948;28;45316;-68
2021/07/14 10:19:02;;;;;;;;;0.00;0.00;;;;;27.03;100.00;101028.41;5027994;28;45285;-68
2021/07/14 10:21:30;;;;;;;;;0.00;0.00;;;;;27.45;98.86;101027.81;5040975;28;45345;-68
2021/07/14 10:23:57;;;;;;;;;0.00;0.00;;;;;27.28;99.83;101032.97;5039339;28;45279;-68
2021/07/14 10:26:22;;;;;;;;;0.00;0.00;;;;;27.32;99.72;101032.34;5034327;28;45325;-66
2021/07/14 10:28:49;;;;;;;;;0.00;0.00;;;;;27.58;98.56;101027.66;5030286;28;45663;-66
2021/07/14 10:31:19;;;;;;;;;0.00;0.00;;;;;27.40;98.87;101025.81;5020831;28;47132;-67
2021/07/14 10:33:44;;;;;;;;;0.00;0.00;;;;;27.59;98.28;101032.84;5036866;28;45403;-67
2021/07/14 10:36:11;;;;;;;;;0.00;0.00;;;;;27.68;97.50;101041.47;5037735;28;45365;-65
2021/07/14 10:38:38;;;;;;;;;0.00;0.00;;;;;27.69;97.29;101029.63;5038164;28;45427;-66
2021/07/14 10:41:06;;;;;;;;;0.00;0.00;;;;;27.72;98.74;101029.19;5036532;28;45612;-66
2021/07/14 10:43:32;;;;;;;;;0.00;0.00;;;;;28.17;97.88;101036.94;5039195;28;45418;-66
2021/07/14 10:45:57;;;;;;;;;0.00;0.00;;;;;28.54;95.07;101044.16;5017507;28;45908;-66
2021/07/14 10:48:24;;;;;;;;;0.00;0.00;;;;;28.75;93.68;101043.59;5034362;28;45474;-65
2021/07/14 10:50:51;;;;;;;;;0.00;0.00;;;;;28.78;93.90;101040.44;5039545;28;45358;-66
2021/07/14 10:53:18;;;;;;;;;0.00;0.00;;;;;29.12;93.84;101046.13;5038112;28;45362;-66
2021/07/14 10:55:45;;;;;;;;;0.00;0.00;;;;;29.51;92.59;101040.22;5036718;28;45559;-68
2021/07/14 10:58:15;;;;;;;;;0.00;0.00;;;;;29.82;92.91;101044.41;5039145;28;45530;-67
2021/07/14 11:00:43;;;;;;;;;0.00;0.00;;;;;30.20;90.31;101043.00;5038230;28;45580;-67
2021/07/14 11:03:31;;;;;;;;;0.00;0.00;;;;;30.51;87.63;101054.41;5041028;28;45541;-67
2021/07/14 11:05:56;;;;;;;;;0.00;0.00;;;;;30.42;88.42;101048.56;5030748;28;45391;-65
2021/07/14 11:08:47;;;;;;;;;0.00;0.00;;;;;30.49;86.91;101046.53;5040485;28;45422;-65
2021/07/14 11:11:15;;;;;;;;;0.00;0.00;;;;;30.51;86.68;101044.38;5031639;28;46980;-66
2021/07/14 11:13:43;;;;;;;;;0.00;0.00;;;;;30.92;86.49;101044.28;5029788;28;45497;-64
2021/07/14 11:16:34;;;;;;;;;0.00;0.00;;;;;31.11;86.67;101052.97;5038656;28;45308;-65
2021/07/14 11:19:14;;;;;;;;;0.00;0.00;;;;;31.39;86.53;101049.31;5018608;28;45346;-63
2021/07/14 11:21:55;;;;;;;;;0.00;0.00;;;;;31.85;79.56;101044.47;5040187;28;46161;-65
2021/07/14 11:24:42;;;;;;;;;0.00;0.00;;;;;31.84;82.38;101040.13;5031462;28;45431;-64
2021/07/14 11:27:23;;;;;;;;;0.00;0.00;;;;;31.77;82.88;101044.94;5038341;28;45292;-65
2021/07/14 11:29:50;;;;;;;;;0.00;0.00;;;;;31.65;81.58;101036.91;5033973;28;45522;-64
2021/07/14 11:32:43;;;;;;;;;0.00;0.00;;;;;31.15;81.97;101040.56;5029456;28;46057;-66
2021/07/14 11:35:15;;;;;;;;;0.00;0.00;;;;;30.68;82.86;101052.53;5027644;28;45832;-64
2021/07/14 11:37:42;;;;;;;;;0.00;0.00;;;;;30.24;82.93;101055.00;5038045;28;45366;-64